sensor_id;sensor_type;location;lat;lon;timestamp;P1;durP1;ratioP1;P2;durP2;ratioP2
22565;SDS011;11449;51.330;19.378;2023-07-31T00:00:38;67.50;;;10.10;;
22565;SDS011;11449;51.330;19.378;2023-07-31T00:05:59;86.30;;;11.80;;
22565;SDS011;11449;51.330;19.378;2023-07-31T00:11:07;84.40;;;11.60;;
22565;SDS011;11449;51.330;19.378;2023-07-31T00:16:15;56.80;;;8.80;;
22565;SDS011;11449;51.330;19.378;2023-07-31T00:21:22;67.30;;;9.80;;
22565;SDS011;11449;51.330;19.378;2023-07-31T00:26:30;45.20;;;7.70;;
22565;SDS011;11449;51.330;19.378;2023-07-31T00:31:38;60.00;;;9.20;;
22565;SDS011;11449;51.330;19.378;2023-07-31T00:36:45;43.00;;;7.50;;
22565;SDS011;11449;51.330;19.378;2023-07-31T00:41:53;123.50;;;14.50;;
22565;SDS011;11449;51.330;19.378;2023-07-31T00:47:00;47.30;;;6.30;;
22565;SDS011;11449;51.330;19.378;2023-07-31T00:52:09;50.10;;;7.10;;
22565;SDS011;11449;51.330;19.378;2023-07-31T00:57:17;54.00;;;7.00;;
22565;SDS011;11449;51.330;19.378;2023-07-31T01:02:26;47.10;;;6.20;;
22565;SDS011;11449;51.330;19.378;2023-07-31T01:07:39;52.80;;;7.10;;
22565;SDS011;11449;51.330;19.378;2023-07-31T01:12:50;47.30;;;5.90;;
22565;SDS011;11449;51.330;19.378;2023-07-31T01:17:58;52.00;;;6.90;;
22565;SDS011;11449;51.330;19.378;2023-07-31T01:23:16;60.20;;;7.80;;
22565;SDS011;11449;51.330;19.378;2023-07-31T01:28:38;54.80;;;7.00;;
22565;SDS011;11449;51.330;19.378;2023-07-31T01:33:43;46.80;;;7.20;;
22565;SDS011;11449;51.330;19.378;2023-07-31T01:38:50;65.70;;;12.90;;
22565;SDS011;11449;51.330;19.378;2023-07-31T01:43:59;64.30;;;13.70;;
22565;SDS011;11449;51.330;19.378;2023-07-31T01:49:07;63.30;;;11.00;;
22565;SDS011;11449;51.330;19.378;2023-07-31T01:54:15;69.60;;;21.90;;
22565;SDS011;11449;51.330;19.378;2023-07-31T01:59:22;66.40;;;18.30;;
22565;SDS011;11449;51.330;19.378;2023-07-31T02:04:30;58.90;;;19.70;;
22565;SDS011;11449;51.330;19.378;2023-07-31T02:09:38;64.80;;;35.10;;
22565;SDS011;11449;51.330;19.378;2023-07-31T02:14:45;146.40;;;102.80;;
22565;SDS011;11449;51.330;19.378;2023-07-31T02:19:53;160.00;;;129.10;;
22565;SDS011;11449;51.330;19.378;2023-07-31T02:25:01;254.60;;;225.00;;
22565;SDS011;11449;51.330;19.378;2023-07-31T02:30:08;380.50;;;343.80;;
22565;SDS011;11449;51.330;19.378;2023-07-31T02:35:16;380.70;;;345.20;;
22565;SDS011;11449;51.330;19.378;2023-07-31T02:40:26;296.00;;;265.60;;
22565;SDS011;11449;51.330;19.378;2023-07-31T02:45:34;363.80;;;329.00;;
22565;SDS011;11449;51.330;19.378;2023-07-31T02:50:42;491.80;;;449.40;;
22565;SDS011;11449;51.330;19.378;2023-07-31T02:55:49;562.10;;;515.60;;
22565;SDS011;11449;51.330;19.378;2023-07-31T03:00:58;307.70;;;275.80;;
22565;SDS011;11449;51.330;19.378;2023-07-31T03:06:05;273.40;;;245.20;;
22565;SDS011;11449;51.330;19.378;2023-07-31T03:11:13;229.70;;;181.60;;
22565;SDS011;11449;51.330;19.378;2023-07-31T03:16:21;246.50;;;207.30;;
22565;SDS011;11449;51.330;19.378;2023-07-31T03:21:28;262.80;;;181.60;;
22565;SDS011;11449;51.330;19.378;2023-07-31T03:26:36;254.70;;;181.70;;
22565;SDS011;11449;51.330;19.378;2023-07-31T03:31:44;310.60;;;190.60;;
22565;SDS011;11449;51.330;19.378;2023-07-31T03:36:52;291.20;;;203.20;;
22565;SDS011;11449;51.330;19.378;2023-07-31T03:41:59;256.70;;;164.00;;
22565;SDS011;11449;51.330;19.378;2023-07-31T03:47:07;288.40;;;183.00;;
22565;SDS011;11449;51.330;19.378;2023-07-31T03:52:15;262.50;;;146.40;;
22565;SDS011;11449;51.330;19.378;2023-07-31T03:57:22;276.10;;;185.20;;
22565;SDS011;11449;51.330;19.378;2023-07-31T04:02:30;274.20;;;183.40;;
22565;SDS011;11449;51.330;19.378;2023-07-31T04:07:37;265.50;;;168.00;;
22565;SDS011;11449;51.330;19.378;2023-07-31T04:12:45;291.90;;;194.70;;
22565;SDS011;11449;51.330;19.378;2023-07-31T04:17:53;282.20;;;201.10;;
22565;SDS011;11449;51.330;19.378;2023-07-31T04:23:00;285.80;;;256.30;;
22565;SDS011;11449;51.330;19.378;2023-07-31T04:28:03;398.20;;;359.40;;
22565;SDS011;11449;51.330;19.378;2023-07-31T04:33:11;264.00;;;174.70;;
22565;SDS011;11449;51.330;19.378;2023-07-31T04:38:19;176.50;;;101.30;;
22565;SDS011;11449;51.330;19.378;2023-07-31T04:43:27;324.10;;;220.70;;
22565;SDS011;11449;51.330;19.378;2023-07-31T04:48:34;328.80;;;225.40;;
22565;SDS011;11449;51.330;19.378;2023-07-31T04:53:42;370.40;;;250.80;;
22565;SDS011;11449;51.330;19.378;2023-07-31T04:58:50;178.90;;;130.10;;
22565;SDS011;11449;51.330;19.378;2023-07-31T05:03:57;458.80;;;417.00;;
22565;SDS011;11449;51.330;19.378;2023-07-31T05:09:05;824.40;;;761.10;;
22565;SDS011;11449;51.330;19.378;2023-07-31T05:14:13;910.80;;;844.70;;
22565;SDS011;11449;51.330;19.378;2023-07-31T05:19:21;977.70;;;909.50;;
22565;SDS011;11449;51.330;19.378;2023-07-31T05:24:28;1023.50;;;952.30;;
22565;SDS011;11449;51.330;19.378;2023-07-31T05:29:36;684.20;;;630.10;;
22565;SDS011;11449;51.330;19.378;2023-07-31T05:34:44;1031.10;;;958.20;;
22565;SDS011;11449;51.330;19.378;2023-07-31T05:39:51;997.80;;;928.40;;
22565;SDS011;11449;51.330;19.378;2023-07-31T05:44:59;1021.70;;;949.00;;
22565;SDS011;11449;51.330;19.378;2023-07-31T05:50:07;628.20;;;575.90;;
22565;SDS011;11449;51.330;19.378;2023-07-31T05:55:15;7.50;;;3.80;;
22565;SDS011;11449;51.330;19.378;2023-07-31T06:00:23;7.90;;;3.60;;
22565;SDS011;11449;51.330;19.378;2023-07-31T06:05:31;5.80;;;3.70;;
22565;SDS011;11449;51.330;19.378;2023-07-31T06:10:41;6.70;;;3.90;;
22565;SDS011;11449;51.330;19.378;2023-07-31T06:15:49;6.10;;;3.40;;
22565;SDS011;11449;51.330;19.378;2023-07-31T06:20:57;7.30;;;3.60;;
22565;SDS011;11449;51.330;19.378;2023-07-31T06:26:04;5.20;;;3.50;;
22565;SDS011;11449;51.330;19.378;2023-07-31T06:31:12;8.90;;;4.30;;
22565;SDS011;11449;51.330;19.378;2023-07-31T06:36:20;8.30;;;3.40;;
22565;SDS011;11449;51.330;19.378;2023-07-31T06:41:27;7.90;;;3.40;;
22565;SDS011;11449;51.330;19.378;2023-07-31T06:46:40;5.10;;;3.40;;
22565;SDS011;11449;51.330;19.378;2023-07-31T06:51:47;7.80;;;4.10;;
22565;SDS011;11449;51.330;19.378;2023-07-31T06:56:55;7.00;;;3.40;;
22565;SDS011;11449;51.330;19.378;2023-07-31T07:02:03;7.90;;;3.70;;
22565;SDS011;11449;51.330;19.378;2023-07-31T07:07:11;7.90;;;3.70;;
22565;SDS011;11449;51.330;19.378;2023-07-31T07:12:18;7.70;;;4.40;;
22565;SDS011;11449;51.330;19.378;2023-07-31T07:17:27;7.30;;;3.70;;
22565;SDS011;11449;51.330;19.378;2023-07-31T07:22:35;7.40;;;4.10;;
22565;SDS011;11449;51.330;19.378;2023-07-31T07:27:44;5.60;;;3.40;;
22565;SDS011;11449;51.330;19.378;2023-07-31T07:32:52;7.90;;;3.50;;
22565;SDS011;11449;51.330;19.378;2023-07-31T07:38:00;10.80;;;3.90;;
22565;SDS011;11449;51.330;19.378;2023-07-31T07:43:08;5.50;;;3.50;;
22565;SDS011;11449;51.330;19.378;2023-07-31T07:48:16;7.60;;;3.60;;
22565;SDS011;11449;51.330;19.378;2023-07-31T07:53:24;7.00;;;3.20;;
22565;SDS011;11449;51.330;19.378;2023-07-31T07:58:32;11.10;;;3.80;;
22565;SDS011;11449;51.330;19.378;2023-07-31T08:03:40;8.70;;;3.40;;
22565;SDS011;11449;51.330;19.378;2023-07-31T08:08:47;8.60;;;3.60;;
22565;SDS011;11449;51.330;19.378;2023-07-31T08:13:55;10.00;;;3.80;;
22565;SDS011;11449;51.330;19.378;2023-07-31T08:19:03;7.80;;;3.20;;
22565;SDS011;11449;51.330;19.378;2023-07-31T08:24:10;10.80;;;4.70;;
22565;SDS011;11449;51.330;19.378;2023-07-31T08:29:18;7.20;;;3.30;;
22565;SDS011;11449;51.330;19.378;2023-07-31T08:34:25;7.10;;;3.10;;
22565;SDS011;11449;51.330;19.378;2023-07-31T08:39:33;8.40;;;3.60;;
22565;SDS011;11449;51.330;19.378;2023-07-31T08:44:41;9.40;;;3.80;;
22565;SDS011;11449;51.330;19.378;2023-07-31T08:49:50;8.50;;;3.40;;
22565;SDS011;11449;51.330;19.378;2023-07-31T08:54:59;16.40;;;3.80;;
22565;SDS011;11449;51.330;19.378;2023-07-31T09:00:07;10.80;;;3.60;;
22565;SDS011;11449;51.330;19.378;2023-07-31T09:05:15;12.10;;;4.00;;
22565;SDS011;11449;51.330;19.378;2023-07-31T09:10:24;13.10;;;4.00;;
22565;SDS011;11449;51.330;19.378;2023-07-31T09:15:32;13.70;;;3.60;;
22565;SDS011;11449;51.330;19.378;2023-07-31T09:20:40;16.70;;;4.40;;
22565;SDS011;11449;51.330;19.378;2023-07-31T09:25:48;20.40;;;4.50;;
22565;SDS011;11449;51.330;19.378;2023-07-31T09:30:55;299.50;;;211.00;;
22565;SDS011;11449;51.330;19.378;2023-07-31T09:36:04;246.50;;;212.70;;
22565;SDS011;11449;51.330;19.378;2023-07-31T09:41:12;5.70;;;2.20;;
22565;SDS011;11449;51.330;19.378;2023-07-31T09:46:20;5.30;;;2.00;;
22565;SDS011;11449;51.330;19.378;2023-07-31T09:51:28;4.00;;;2.10;;
22565;SDS011;11449;51.330;19.378;2023-07-31T09:56:36;5.50;;;2.60;;
22565;SDS011;11449;51.330;19.378;2023-07-31T10:01:44;4.90;;;1.90;;
22565;SDS011;11449;51.330;19.378;2023-07-31T10:06:53;6.70;;;2.00;;
22565;SDS011;11449;51.330;19.378;2023-07-31T10:12:01;5.70;;;2.40;;
22565;SDS011;11449;51.330;19.378;2023-07-31T10:17:09;4.50;;;2.40;;
22565;SDS011;11449;51.330;19.378;2023-07-31T10:22:18;6.20;;;2.20;;
22565;SDS011;11449;51.330;19.378;2023-07-31T10:27:27;7.90;;;2.10;;
22565;SDS011;11449;51.330;19.378;2023-07-31T10:32:34;5.90;;;2.40;;
22565;SDS011;11449;51.330;19.378;2023-07-31T10:37:43;7.60;;;2.80;;
22565;SDS011;11449;51.330;19.378;2023-07-31T10:48:07;6.20;;;2.60;;
22565;SDS011;11449;51.330;19.378;2023-07-31T10:53:24;4.70;;;2.10;;
22565;SDS011;11449;51.330;19.378;2023-07-31T10:58:32;6.20;;;2.10;;
22565;SDS011;11449;51.330;19.378;2023-07-31T11:08:51;11.10;;;2.80;;
22565;SDS011;11449;51.330;19.378;2023-07-31T11:13:58;7.60;;;3.90;;
22565;SDS011;11449;51.330;19.378;2023-07-31T11:19:08;6.90;;;2.40;;
22565;SDS011;11449;51.330;19.378;2023-07-31T11:24:15;8.30;;;2.60;;
22565;SDS011;11449;51.330;19.378;2023-07-31T11:29:23;7.00;;;2.80;;
22565;SDS011;11449;51.330;19.378;2023-07-31T11:34:47;5.70;;;2.80;;
22565;SDS011;11449;51.330;19.378;2023-07-31T11:39:58;7.30;;;2.70;;
22565;SDS011;11449;51.330;19.378;2023-07-31T11:45:06;6.40;;;3.80;;
22565;SDS011;11449;51.330;19.378;2023-07-31T11:50:14;9.40;;;3.20;;
22565;SDS011;11449;51.330;19.378;2023-07-31T11:55:22;8.20;;;3.80;;
22565;SDS011;11449;51.330;19.378;2023-07-31T12:00:30;8.30;;;2.80;;
22565;SDS011;11449;51.330;19.378;2023-07-31T12:05:38;6.30;;;3.10;;
22565;SDS011;11449;51.330;19.378;2023-07-31T12:10:46;8.90;;;4.80;;
22565;SDS011;11449;51.330;19.378;2023-07-31T12:15:58;9.30;;;3.70;;
22565;SDS011;11449;51.330;19.378;2023-07-31T12:21:08;6.20;;;3.00;;
22565;SDS011;11449;51.330;19.378;2023-07-31T12:26:16;6.70;;;2.80;;
22565;SDS011;11449;51.330;19.378;2023-07-31T12:31:25;8.30;;;3.50;;
22565;SDS011;11449;51.330;19.378;2023-07-31T12:36:35;4.70;;;2.70;;
22565;SDS011;11449;51.330;19.378;2023-07-31T12:41:43;11.40;;;5.60;;
22565;SDS011;11449;51.330;19.378;2023-07-31T12:46:51;10.50;;;5.00;;
22565;SDS011;11449;51.330;19.378;2023-07-31T12:51:58;10.70;;;4.40;;
22565;SDS011;11449;51.330;19.378;2023-07-31T12:57:06;7.90;;;3.70;;
22565;SDS011;11449;51.330;19.378;2023-07-31T13:02:14;11.60;;;6.10;;
22565;SDS011;11449;51.330;19.378;2023-07-31T13:07:22;7.90;;;2.80;;
22565;SDS011;11449;51.330;19.378;2023-07-31T13:12:30;6.20;;;2.80;;
22565;SDS011;11449;51.330;19.378;2023-07-31T13:17:37;8.90;;;3.10;;
22565;SDS011;11449;51.330;19.378;2023-07-31T13:22:45;7.70;;;2.60;;
22565;SDS011;11449;51.330;19.378;2023-07-31T13:27:53;13.60;;;3.90;;
22565;SDS011;11449;51.330;19.378;2023-07-31T13:33:00;13.80;;;4.50;;
22565;SDS011;11449;51.330;19.378;2023-07-31T13:38:08;10.20;;;4.30;;
22565;SDS011;11449;51.330;19.378;2023-07-31T13:43:16;12.20;;;3.90;;
22565;SDS011;11449;51.330;19.378;2023-07-31T13:48:24;87.10;;;35.00;;
22565;SDS011;11449;51.330;19.378;2023-07-31T13:53:32;97.30;;;37.50;;
22565;SDS011;11449;51.330;19.378;2023-07-31T13:58:39;133.20;;;69.40;;
22565;SDS011;11449;51.330;19.378;2023-07-31T14:03:47;166.40;;;95.60;;
22565;SDS011;11449;51.330;19.378;2023-07-31T14:08:55;154.00;;;76.60;;
22565;SDS011;11449;51.330;19.378;2023-07-31T14:14:03;97.20;;;35.70;;
22565;SDS011;11449;51.330;19.378;2023-07-31T14:19:11;96.60;;;32.80;;
22565;SDS011;11449;51.330;19.378;2023-07-31T14:24:19;90.20;;;37.00;;
22565;SDS011;11449;51.330;19.378;2023-07-31T14:29:27;109.60;;;40.50;;
22565;SDS011;11449;51.330;19.378;2023-07-31T14:34:34;117.40;;;42.50;;
22565;SDS011;11449;51.330;19.378;2023-07-31T14:39:42;110.60;;;30.20;;
22565;SDS011;11449;51.330;19.378;2023-07-31T14:44:50;82.30;;;24.60;;
22565;SDS011;11449;51.330;19.378;2023-07-31T14:49:58;125.10;;;41.70;;
22565;SDS011;11449;51.330;19.378;2023-07-31T14:55:06;108.40;;;21.40;;
22565;SDS011;11449;51.330;19.378;2023-07-31T15:00:14;102.30;;;27.60;;
22565;SDS011;11449;51.330;19.378;2023-07-31T15:05:22;85.90;;;25.50;;
22565;SDS011;11449;51.330;19.378;2023-07-31T15:10:30;78.20;;;24.60;;
22565;SDS011;11449;51.330;19.378;2023-07-31T15:15:37;109.10;;;37.90;;
22565;SDS011;11449;51.330;19.378;2023-07-31T15:20:45;105.50;;;44.50;;
22565;SDS011;11449;51.330;19.378;2023-07-31T15:25:53;137.20;;;63.70;;
22565;SDS011;11449;51.330;19.378;2023-07-31T15:31:01;125.50;;;39.50;;
22565;SDS011;11449;51.330;19.378;2023-07-31T15:36:08;155.10;;;55.70;;
22565;SDS011;11449;51.330;19.378;2023-07-31T15:41:16;189.30;;;84.30;;
22565;SDS011;11449;51.330;19.378;2023-07-31T15:46:24;186.10;;;109.40;;
22565;SDS011;11449;51.330;19.378;2023-07-31T15:51:32;161.00;;;81.60;;
22565;SDS011;11449;51.330;19.378;2023-07-31T15:56:41;154.40;;;84.60;;
22565;SDS011;11449;51.330;19.378;2023-07-31T16:01:43;191.20;;;91.10;;
22565;SDS011;11449;51.330;19.378;2023-07-31T16:06:51;163.40;;;50.30;;
22565;SDS011;11449;51.330;19.378;2023-07-31T16:11:59;204.80;;;51.80;;
22565;SDS011;11449;51.330;19.378;2023-07-31T16:17:06;140.70;;;41.20;;
22565;SDS011;11449;51.330;19.378;2023-07-31T16:22:14;146.90;;;71.70;;
22565;SDS011;11449;51.330;19.378;2023-07-31T16:27:21;152.10;;;73.80;;
22565;SDS011;11449;51.330;19.378;2023-07-31T16:32:31;133.70;;;62.80;;
22565;SDS011;11449;51.330;19.378;2023-07-31T16:37:39;115.90;;;48.20;;
22565;SDS011;11449;51.330;19.378;2023-07-31T16:42:47;132.30;;;64.10;;
22565;SDS011;11449;51.330;19.378;2023-07-31T16:47:55;162.30;;;60.90;;
22565;SDS011;11449;51.330;19.378;2023-07-31T16:53:03;136.00;;;50.30;;
22565;SDS011;11449;51.330;19.378;2023-07-31T16:58:10;140.70;;;60.70;;
22565;SDS011;11449;51.330;19.378;2023-07-31T17:03:18;133.90;;;66.30;;
22565;SDS011;11449;51.330;19.378;2023-07-31T17:08:26;164.20;;;79.00;;
22565;SDS011;11449;51.330;19.378;2023-07-31T17:13:34;133.60;;;58.10;;
22565;SDS011;11449;51.330;19.378;2023-07-31T17:18:41;151.00;;;74.90;;
22565;SDS011;11449;51.330;19.378;2023-07-31T17:23:49;176.80;;;100.10;;
22565;SDS011;11449;51.330;19.378;2023-07-31T17:28:57;188.40;;;101.30;;
22565;SDS011;11449;51.330;19.378;2023-07-31T17:34:05;180.70;;;96.60;;
22565;SDS011;11449;51.330;19.378;2023-07-31T17:39:13;174.10;;;98.60;;
22565;SDS011;11449;51.330;19.378;2023-07-31T17:44:21;167.40;;;83.50;;
22565;SDS011;11449;51.330;19.378;2023-07-31T17:49:29;175.40;;;93.20;;
22565;SDS011;11449;51.330;19.378;2023-07-31T17:54:37;240.10;;;154.90;;
22565;SDS011;11449;51.330;19.378;2023-07-31T17:59:45;211.50;;;141.00;;
22565;SDS011;11449;51.330;19.378;2023-07-31T18:04:52;240.70;;;158.50;;
22565;SDS011;11449;51.330;19.378;2023-07-31T18:09:55;220.20;;;115.70;;
22565;SDS011;11449;51.330;19.378;2023-07-31T18:15:03;132.70;;;43.30;;
22565;SDS011;11449;51.330;19.378;2023-07-31T18:20:11;11.80;;;6.10;;
22565;SDS011;11449;51.330;19.378;2023-07-31T18:25:20;10.80;;;6.70;;
22565;SDS011;11449;51.330;19.378;2023-07-31T18:30:28;14.40;;;8.50;;
22565;SDS011;11449;51.330;19.378;2023-07-31T18:35:39;19.60;;;12.40;;
22565;SDS011;11449;51.330;19.378;2023-07-31T18:40:46;20.50;;;13.10;;
22565;SDS011;11449;51.330;19.378;2023-07-31T18:45:54;21.70;;;10.90;;
22565;SDS011;11449;51.330;19.378;2023-07-31T18:51:02;21.90;;;10.50;;
22565;SDS011;11449;51.330;19.378;2023-07-31T18:56:05;18.60;;;9.10;;
22565;SDS011;11449;51.330;19.378;2023-07-31T19:01:07;16.40;;;8.10;;
22565;SDS011;11449;51.330;19.378;2023-07-31T19:06:15;15.10;;;6.10;;
22565;SDS011;11449;51.330;19.378;2023-07-31T19:11:23;13.00;;;7.30;;
22565;SDS011;11449;51.330;19.378;2023-07-31T19:16:31;13.50;;;5.80;;
22565;SDS011;11449;51.330;19.378;2023-07-31T19:21:39;13.30;;;5.00;;
22565;SDS011;11449;51.330;19.378;2023-07-31T19:26:47;14.90;;;5.40;;
22565;SDS011;11449;51.330;19.378;2023-07-31T19:31:55;21.60;;;6.10;;
22565;SDS011;11449;51.330;19.378;2023-07-31T19:37:03;14.10;;;5.30;;
22565;SDS011;11449;51.330;19.378;2023-07-31T19:42:11;13.10;;;5.20;;
22565;SDS011;11449;51.330;19.378;2023-07-31T19:47:18;28.30;;;12.10;;
22565;SDS011;11449;51.330;19.378;2023-07-31T19:52:23;24.30;;;12.20;;
22565;SDS011;11449;51.330;19.378;2023-07-31T19:57:31;20.70;;;10.60;;
22565;SDS011;11449;51.330;19.378;2023-07-31T20:02:39;13.20;;;6.70;;
22565;SDS011;11449;51.330;19.378;2023-07-31T20:07:46;16.40;;;7.60;;
22565;SDS011;11449;51.330;19.378;2023-07-31T20:12:54;15.20;;;9.80;;
22565;SDS011;11449;51.330;19.378;2023-07-31T20:18:02;18.10;;;9.90;;
22565;SDS011;11449;51.330;19.378;2023-07-31T20:23:09;24.80;;;14.40;;
22565;SDS011;11449;51.330;19.378;2023-07-31T20:28:17;18.20;;;10.10;;
22565;SDS011;11449;51.330;19.378;2023-07-31T20:33:25;16.40;;;10.40;;
22565;SDS011;11449;51.330;19.378;2023-07-31T20:38:32;13.10;;;5.70;;
22565;SDS011;11449;51.330;19.378;2023-07-31T20:43:40;8.90;;;5.20;;
22565;SDS011;11449;51.330;19.378;2023-07-31T20:48:48;11.10;;;5.90;;
22565;SDS011;11449;51.330;19.378;2023-07-31T20:53:50;11.90;;;6.90;;
22565;SDS011;11449;51.330;19.378;2023-07-31T20:58:59;12.00;;;6.80;;
22565;SDS011;11449;51.330;19.378;2023-07-31T21:04:06;9.70;;;4.10;;
22565;SDS011;11449;51.330;19.378;2023-07-31T21:09:14;7.40;;;4.60;;
22565;SDS011;11449;51.330;19.378;2023-07-31T21:14:22;14.90;;;4.90;;
22565;SDS011;11449;51.330;19.378;2023-07-31T21:19:30;12.30;;;4.60;;
22565;SDS011;11449;51.330;19.378;2023-07-31T21:24:37;11.60;;;5.50;;
22565;SDS011;11449;51.330;19.378;2023-07-31T21:29:45;15.10;;;5.20;;
22565;SDS011;11449;51.330;19.378;2023-07-31T21:34:53;11.00;;;5.00;;
22565;SDS011;11449;51.330;19.378;2023-07-31T21:40:01;12.70;;;6.10;;
22565;SDS011;11449;51.330;19.378;2023-07-31T21:45:10;11.90;;;6.00;;
22565;SDS011;11449;51.330;19.378;2023-07-31T21:50:18;11.10;;;6.10;;
22565;SDS011;11449;51.330;19.378;2023-07-31T21:55:25;12.90;;;6.20;;
22565;SDS011;11449;51.330;19.378;2023-07-31T22:00:33;11.40;;;6.00;;
22565;SDS011;11449;51.330;19.378;2023-07-31T22:05:41;11.60;;;5.40;;
22565;SDS011;11449;51.330;19.378;2023-07-31T22:10:48;12.90;;;6.30;;
22565;SDS011;11449;51.330;19.378;2023-07-31T22:15:56;11.60;;;6.00;;
22565;SDS011;11449;51.330;19.378;2023-07-31T22:21:05;10.90;;;5.80;;
22565;SDS011;11449;51.330;19.378;2023-07-31T22:26:14;14.90;;;6.40;;
22565;SDS011;11449;51.330;19.378;2023-07-31T22:31:22;10.10;;;5.70;;
22565;SDS011;11449;51.330;19.378;2023-07-31T22:36:30;10.70;;;5.00;;
22565;SDS011;11449;51.330;19.378;2023-07-31T22:41:37;12.50;;;6.10;;
22565;SDS011;11449;51.330;19.378;2023-07-31T22:46:45;12.70;;;6.00;;
22565;SDS011;11449;51.330;19.378;2023-07-31T22:51:53;19.30;;;8.50;;
22565;SDS011;11449;51.330;19.378;2023-07-31T22:57:00;43.90;;;11.70;;
22565;SDS011;11449;51.330;19.378;2023-07-31T23:02:08;32.20;;;8.50;;
22565;SDS011;11449;51.330;19.378;2023-07-31T23:07:16;41.40;;;7.90;;
22565;SDS011;11449;51.330;19.378;2023-07-31T23:12:24;37.30;;;8.30;;
22565;SDS011;11449;51.330;19.378;2023-07-31T23:17:32;45.30;;;8.30;;
22565;SDS011;11449;51.330;19.378;2023-07-31T23:22:39;31.60;;;7.70;;
22565;SDS011;11449;51.330;19.378;2023-07-31T23:27:47;37.20;;;8.00;;
22565;SDS011;11449;51.330;19.378;2023-07-31T23:32:55;48.20;;;9.70;;
22565;SDS011;11449;51.330;19.378;2023-07-31T23:38:03;47.00;;;9.90;;
22565;SDS011;11449;51.330;19.378;2023-07-31T23:43:10;48.00;;;9.70;;
22565;SDS011;11449;51.330;19.378;2023-07-31T23:48:18;44.40;;;8.90;;
22565;SDS011;11449;51.330;19.378;2023-07-31T23:53:26;44.30;;;9.00;;
22565;SDS011;11449;51.330;19.378;2023-07-31T23:58:33;48.70;;;10.30;;
